sensor_id;sensor_type;location;lat;lon;timestamp;P1;durP1;ratioP1;P2;durP2;ratioP2
37199;SDS011;23096;50.892;16.746;2023-06-10T00:00:54;7.20;;;6.50;;
37199;SDS011;23096;50.892;16.746;2023-06-10T00:03:21;9.70;;;6.60;;
37199;SDS011;23096;50.892;16.746;2023-06-10T00:05:49;8.50;;;7.40;;
37199;SDS011;23096;50.892;16.746;2023-06-10T00:08:14;9.30;;;7.40;;
37199;SDS011;23096;50.892;16.746;2023-06-10T00:10:41;8.20;;;7.40;;
37199;SDS011;23096;50.892;16.746;2023-06-10T00:13:06;8.20;;;6.80;;
37199;SDS011;23096;50.892;16.746;2023-06-10T00:15:36;8.30;;;6.80;;
37199;SDS011;23096;50.892;16.746;2023-06-10T00:18:03;8.20;;;7.40;;
37199;SDS011;23096;50.892;16.746;2023-06-10T00:20:29;7.50;;;6.80;;
37199;SDS011;23096;50.892;16.746;2023-06-10T00:22:56;7.80;;;7.00;;
37199;SDS011;23096;50.892;16.746;2023-06-10T00:25:23;8.80;;;7.50;;
37199;SDS011;23096;50.892;16.746;2023-06-10T00:27:51;8.90;;;7.70;;
37199;SDS011;23096;50.892;16.746;2023-06-10T00:30:17;8.40;;;7.20;;
37199;SDS011;23096;50.892;16.746;2023-06-10T00:32:42;9.30;;;7.70;;
37199;SDS011;23096;50.892;16.746;2023-06-10T00:35:08;8.30;;;7.50;;
37199;SDS011;23096;50.892;16.746;2023-06-10T00:37:34;8.80;;;7.70;;
37199;SDS011;23096;50.892;16.746;2023-06-10T00:40:03;8.60;;;7.40;;
37199;SDS011;23096;50.892;16.746;2023-06-10T00:42:31;11.70;;;8.60;;
37199;SDS011;23096;50.892;16.746;2023-06-10T00:44:56;11.60;;;8.60;;
37199;SDS011;23096;50.892;16.746;2023-06-10T00:47:22;7.90;;;7.20;;
37199;SDS011;23096;50.892;16.746;2023-06-10T00:49:49;9.30;;;8.20;;
37199;SDS011;23096;50.892;16.746;2023-06-10T00:52:16;8.80;;;8.00;;
37199;SDS011;23096;50.892;16.746;2023-06-10T00:54:43;9.50;;;8.50;;
37199;SDS011;23096;50.892;16.746;2023-06-10T00:57:09;9.60;;;8.50;;
37199;SDS011;23096;50.892;16.746;2023-06-10T00:59:35;12.80;;;9.10;;
37199;SDS011;23096;50.892;16.746;2023-06-10T01:02:01;9.10;;;8.30;;
37199;SDS011;23096;50.892;16.746;2023-06-10T01:04:28;12.60;;;8.90;;
37199;SDS011;23096;50.892;16.746;2023-06-10T01:12:10;11.30;;;9.20;;
37199;SDS011;23096;50.892;16.746;2023-06-10T01:14:42;10.90;;;8.60;;
37199;SDS011;23096;50.892;16.746;2023-06-10T01:17:10;10.70;;;8.80;;
37199;SDS011;23096;50.892;16.746;2023-06-10T01:19:37;11.50;;;9.80;;
37199;SDS011;23096;50.892;16.746;2023-06-10T01:22:03;10.40;;;9.30;;
37199;SDS011;23096;50.892;16.746;2023-06-10T01:24:29;11.90;;;9.90;;
37199;SDS011;23096;50.892;16.746;2023-06-10T01:27:00;11.10;;;10.00;;
37199;SDS011;23096;50.892;16.746;2023-06-10T01:29:33;11.00;;;9.90;;
37199;SDS011;23096;50.892;16.746;2023-06-10T01:32:15;9.90;;;9.00;;
37199;SDS011;23096;50.892;16.746;2023-06-10T01:34:46;11.00;;;9.40;;
37199;SDS011;23096;50.892;16.746;2023-06-10T01:37:16;10.90;;;9.70;;
37199;SDS011;23096;50.892;16.746;2023-06-10T01:39:45;10.80;;;9.80;;
37199;SDS011;23096;50.892;16.746;2023-06-10T01:42:12;11.70;;;9.70;;
37199;SDS011;23096;50.892;16.746;2023-06-10T01:44:38;12.00;;;10.20;;
37199;SDS011;23096;50.892;16.746;2023-06-10T01:47:07;12.00;;;9.60;;
37199;SDS011;23096;50.892;16.746;2023-06-10T01:49:33;10.80;;;9.70;;
37199;SDS011;23096;50.892;16.746;2023-06-10T01:51:59;9.80;;;8.80;;
37199;SDS011;23096;50.892;16.746;2023-06-10T01:54:24;11.20;;;9.60;;
37199;SDS011;23096;50.892;16.746;2023-06-10T01:56:50;10.90;;;8.90;;
37199;SDS011;23096;50.892;16.746;2023-06-10T01:59:16;9.60;;;8.70;;
37199;SDS011;23096;50.892;16.746;2023-06-10T02:01:42;9.40;;;8.40;;
37199;SDS011;23096;50.892;16.746;2023-06-10T02:04:09;11.20;;;10.10;;
37199;SDS011;23096;50.892;16.746;2023-06-10T02:06:35;9.50;;;8.70;;
37199;SDS011;23096;50.892;16.746;2023-06-10T02:09:02;10.20;;;9.20;;
37199;SDS011;23096;50.892;16.746;2023-06-10T02:11:28;11.00;;;9.40;;
37199;SDS011;23096;50.892;16.746;2023-06-10T02:13:54;11.10;;;9.00;;
37199;SDS011;23096;50.892;16.746;2023-06-10T02:16:20;10.20;;;8.80;;
37199;SDS011;23096;50.892;16.746;2023-06-10T02:18:46;10.10;;;9.10;;
37199;SDS011;23096;50.892;16.746;2023-06-10T02:21:13;9.20;;;8.20;;
37199;SDS011;23096;50.892;16.746;2023-06-10T02:23:39;10.70;;;9.10;;
37199;SDS011;23096;50.892;16.746;2023-06-10T02:26:05;9.50;;;8.40;;
37199;SDS011;23096;50.892;16.746;2023-06-10T02:28:31;9.80;;;8.90;;
37199;SDS011;23096;50.892;16.746;2023-06-10T02:30:57;10.10;;;9.10;;
37199;SDS011;23096;50.892;16.746;2023-06-10T02:33:24;10.40;;;9.40;;
37199;SDS011;23096;50.892;16.746;2023-06-10T02:35:50;9.90;;;8.40;;
37199;SDS011;23096;50.892;16.746;2023-06-10T02:38:15;11.00;;;9.40;;
37199;SDS011;23096;50.892;16.746;2023-06-10T02:40:42;11.30;;;9.00;;
37199;SDS011;23096;50.892;16.746;2023-06-10T02:43:08;11.10;;;8.70;;
37199;SDS011;23096;50.892;16.746;2023-06-10T02:45:35;10.50;;;8.80;;
37199;SDS011;23096;50.892;16.746;2023-06-10T02:48:00;9.80;;;8.60;;
37199;SDS011;23096;50.892;16.746;2023-06-10T02:50:26;10.80;;;8.90;;
37199;SDS011;23096;50.892;16.746;2023-06-10T02:53:00;10.70;;;9.20;;
37199;SDS011;23096;50.892;16.746;2023-06-10T02:55:26;10.50;;;8.40;;
37199;SDS011;23096;50.892;16.746;2023-06-10T02:57:57;10.10;;;8.40;;
37199;SDS011;23096;50.892;16.746;2023-06-10T03:00:23;10.00;;;8.80;;
37199;SDS011;23096;50.892;16.746;2023-06-10T03:02:49;9.40;;;8.00;;
37199;SDS011;23096;50.892;16.746;2023-06-10T03:05:15;11.70;;;9.00;;
37199;SDS011;23096;50.892;16.746;2023-06-10T03:07:44;9.80;;;8.80;;
37199;SDS011;23096;50.892;16.746;2023-06-10T03:10:11;11.00;;;8.80;;
37199;SDS011;23096;50.892;16.746;2023-06-10T03:12:38;9.50;;;8.50;;
37199;SDS011;23096;50.892;16.746;2023-06-10T03:15:03;15.00;;;9.60;;
37199;SDS011;23096;50.892;16.746;2023-06-10T03:17:30;11.30;;;9.40;;
37199;SDS011;23096;50.892;16.746;2023-06-10T03:19:55;11.30;;;9.60;;
37199;SDS011;23096;50.892;16.746;2023-06-10T03:22:22;12.10;;;9.00;;
37199;SDS011;23096;50.892;16.746;2023-06-10T03:24:53;10.00;;;9.00;;
37199;SDS011;23096;50.892;16.746;2023-06-10T03:27:20;10.50;;;9.00;;
37199;SDS011;23096;50.892;16.746;2023-06-10T03:29:48;10.40;;;8.90;;
37199;SDS011;23096;50.892;16.746;2023-06-10T03:32:14;10.10;;;8.70;;
37199;SDS011;23096;50.892;16.746;2023-06-10T03:34:40;10.40;;;9.20;;
37199;SDS011;23096;50.892;16.746;2023-06-10T03:37:06;10.20;;;9.10;;
37199;SDS011;23096;50.892;16.746;2023-06-10T03:39:32;10.40;;;9.00;;
37199;SDS011;23096;50.892;16.746;2023-06-10T03:41:58;10.40;;;9.00;;
37199;SDS011;23096;50.892;16.746;2023-06-10T03:44:24;10.20;;;9.30;;
37199;SDS011;23096;50.892;16.746;2023-06-10T03:46:56;10.10;;;8.50;;
37199;SDS011;23096;50.892;16.746;2023-06-10T03:49:24;12.30;;;8.90;;
37199;SDS011;23096;50.892;16.746;2023-06-10T03:51:53;11.40;;;9.90;;
37199;SDS011;23096;50.892;16.746;2023-06-10T03:54:19;10.30;;;9.00;;
37199;SDS011;23096;50.892;16.746;2023-06-10T03:56:46;9.90;;;8.90;;
37199;SDS011;23096;50.892;16.746;2023-06-10T03:59:13;10.10;;;8.60;;
37199;SDS011;23096;50.892;16.746;2023-06-10T04:01:39;11.00;;;9.70;;
37199;SDS011;23096;50.892;16.746;2023-06-10T04:04:06;10.30;;;8.00;;
37199;SDS011;23096;50.892;16.746;2023-06-10T04:06:33;10.70;;;8.70;;
37199;SDS011;23096;50.892;16.746;2023-06-10T04:08:58;9.40;;;8.50;;
37199;SDS011;23096;50.892;16.746;2023-06-10T04:11:26;9.70;;;8.70;;
37199;SDS011;23096;50.892;16.746;2023-06-10T04:13:52;10.30;;;9.30;;
37199;SDS011;23096;50.892;16.746;2023-06-10T04:16:17;10.20;;;9.20;;
37199;SDS011;23096;50.892;16.746;2023-06-10T04:18:43;11.50;;;9.80;;
37199;SDS011;23096;50.892;16.746;2023-06-10T04:21:09;10.00;;;9.00;;
37199;SDS011;23096;50.892;16.746;2023-06-10T04:23:35;11.30;;;9.60;;
37199;SDS011;23096;50.892;16.746;2023-06-10T04:26:03;9.40;;;8.20;;
37199;SDS011;23096;50.892;16.746;2023-06-10T04:28:28;9.60;;;8.60;;
37199;SDS011;23096;50.892;16.746;2023-06-10T04:30:54;9.60;;;8.60;;
37199;SDS011;23096;50.892;16.746;2023-06-10T04:33:20;10.10;;;9.00;;
37199;SDS011;23096;50.892;16.746;2023-06-10T04:35:45;11.20;;;9.20;;
37199;SDS011;23096;50.892;16.746;2023-06-10T04:38:13;10.30;;;9.30;;
37199;SDS011;23096;50.892;16.746;2023-06-10T04:40:39;10.50;;;9.30;;
37199;SDS011;23096;50.892;16.746;2023-06-10T04:43:06;10.60;;;9.50;;
37199;SDS011;23096;50.892;16.746;2023-06-10T04:45:31;14.30;;;10.00;;
37199;SDS011;23096;50.892;16.746;2023-06-10T04:47:57;13.00;;;9.20;;
37199;SDS011;23096;50.892;16.746;2023-06-10T04:50:23;12.00;;;10.40;;
37199;SDS011;23096;50.892;16.746;2023-06-10T04:52:49;11.90;;;10.70;;
37199;SDS011;23096;50.892;16.746;2023-06-10T04:55:15;12.10;;;9.20;;
37199;SDS011;23096;50.892;16.746;2023-06-10T04:57:41;13.40;;;11.50;;
37199;SDS011;23096;50.892;16.746;2023-06-10T05:00:07;13.30;;;10.20;;
37199;SDS011;23096;50.892;16.746;2023-06-10T05:02:33;10.90;;;9.20;;
37199;SDS011;23096;50.892;16.746;2023-06-10T05:04:59;12.10;;;10.10;;
37199;SDS011;23096;50.892;16.746;2023-06-10T05:07:25;10.80;;;9.70;;
37199;SDS011;23096;50.892;16.746;2023-06-10T05:09:51;11.50;;;10.20;;
37199;SDS011;23096;50.892;16.746;2023-06-10T05:12:16;11.80;;;10.60;;
37199;SDS011;23096;50.892;16.746;2023-06-10T05:14:42;11.30;;;10.20;;
37199;SDS011;23096;50.892;16.746;2023-06-10T05:17:08;10.80;;;9.80;;
37199;SDS011;23096;50.892;16.746;2023-06-10T05:19:33;11.90;;;10.70;;
37199;SDS011;23096;50.892;16.746;2023-06-10T05:22:01;10.90;;;9.80;;
37199;SDS011;23096;50.892;16.746;2023-06-10T05:24:27;13.00;;;11.20;;
37199;SDS011;23096;50.892;16.746;2023-06-10T05:26:53;13.30;;;11.50;;
37199;SDS011;23096;50.892;16.746;2023-06-10T05:29:18;13.30;;;11.10;;
37199;SDS011;23096;50.892;16.746;2023-06-10T05:31:44;13.50;;;11.80;;
37199;SDS011;23096;50.892;16.746;2023-06-10T05:34:10;14.70;;;11.70;;
37199;SDS011;23096;50.892;16.746;2023-06-10T05:36:36;15.90;;;12.30;;
37199;SDS011;23096;50.892;16.746;2023-06-10T05:39:01;15.50;;;10.50;;
37199;SDS011;23096;50.892;16.746;2023-06-10T05:41:28;12.10;;;10.90;;
37199;SDS011;23096;50.892;16.746;2023-06-10T05:43:53;14.10;;;11.70;;
37199;SDS011;23096;50.892;16.746;2023-06-10T05:46:19;16.80;;;12.70;;
37199;SDS011;23096;50.892;16.746;2023-06-10T05:48:45;13.80;;;12.20;;
37199;SDS011;23096;50.892;16.746;2023-06-10T05:51:11;12.40;;;11.10;;
37199;SDS011;23096;50.892;16.746;2023-06-10T05:53:36;15.40;;;13.00;;
37199;SDS011;23096;50.892;16.746;2023-06-10T05:56:03;14.50;;;12.10;;
37199;SDS011;23096;50.892;16.746;2023-06-10T05:58:29;13.80;;;12.40;;
37199;SDS011;23096;50.892;16.746;2023-06-10T06:00:55;16.30;;;13.20;;
37199;SDS011;23096;50.892;16.746;2023-06-10T06:03:20;24.50;;;19.10;;
37199;SDS011;23096;50.892;16.746;2023-06-10T06:05:46;19.80;;;17.50;;
37199;SDS011;23096;50.892;16.746;2023-06-10T06:08:12;16.90;;;14.50;;
37199;SDS011;23096;50.892;16.746;2023-06-10T06:10:38;15.10;;;13.30;;
37199;SDS011;23096;50.892;16.746;2023-06-10T06:13:04;17.50;;;12.50;;
37199;SDS011;23096;50.892;16.746;2023-06-10T06:15:30;17.40;;;13.70;;
37199;SDS011;23096;50.892;16.746;2023-06-10T06:17:55;15.90;;;14.10;;
37199;SDS011;23096;50.892;16.746;2023-06-10T06:20:21;16.50;;;14.50;;
37199;SDS011;23096;50.892;16.746;2023-06-10T06:22:48;14.80;;;13.30;;
37199;SDS011;23096;50.892;16.746;2023-06-10T06:25:14;21.30;;;13.60;;
37199;SDS011;23096;50.892;16.746;2023-06-10T06:27:40;16.70;;;13.40;;
37199;SDS011;23096;50.892;16.746;2023-06-10T06:30:06;14.30;;;12.80;;
37199;SDS011;23096;50.892;16.746;2023-06-10T06:32:32;14.00;;;12.60;;
37199;SDS011;23096;50.892;16.746;2023-06-10T06:34:57;15.80;;;12.90;;
37199;SDS011;23096;50.892;16.746;2023-06-10T06:37:24;18.60;;;14.50;;
37199;SDS011;23096;50.892;16.746;2023-06-10T06:39:52;17.40;;;13.90;;
37199;SDS011;23096;50.892;16.746;2023-06-10T06:42:18;17.70;;;14.00;;
37199;SDS011;23096;50.892;16.746;2023-06-10T06:44:52;22.90;;;15.70;;
37199;SDS011;23096;50.892;16.746;2023-06-10T06:47:18;16.40;;;14.40;;
37199;SDS011;23096;50.892;16.746;2023-06-10T06:49:48;21.70;;;15.60;;
37199;SDS011;23096;50.892;16.746;2023-06-10T06:52:14;17.70;;;15.80;;
37199;SDS011;23096;50.892;16.746;2023-06-10T06:54:40;20.20;;;15.30;;
37199;SDS011;23096;50.892;16.746;2023-06-10T06:57:06;17.70;;;15.50;;
37199;SDS011;23096;50.892;16.746;2023-06-10T06:59:32;16.70;;;14.40;;
37199;SDS011;23096;50.892;16.746;2023-06-10T07:01:58;18.80;;;15.40;;
37199;SDS011;23096;50.892;16.746;2023-06-10T07:04:24;16.50;;;14.70;;
37199;SDS011;23096;50.892;16.746;2023-06-10T07:06:49;19.10;;;16.10;;
37199;SDS011;23096;50.892;16.746;2023-06-10T07:09:15;17.30;;;15.60;;
37199;SDS011;23096;50.892;16.746;2023-06-10T07:11:41;17.90;;;15.90;;
37199;SDS011;23096;50.892;16.746;2023-06-10T07:14:07;17.90;;;15.50;;
37199;SDS011;23096;50.892;16.746;2023-06-10T07:16:33;16.20;;;14.50;;
37199;SDS011;23096;50.892;16.746;2023-06-10T07:18:59;15.70;;;14.10;;
37199;SDS011;23096;50.892;16.746;2023-06-10T07:21:25;19.40;;;16.20;;
37199;SDS011;23096;50.892;16.746;2023-06-10T07:23:50;20.40;;;17.10;;
37199;SDS011;23096;50.892;16.746;2023-06-10T07:26:19;20.20;;;15.00;;
37199;SDS011;23096;50.892;16.746;2023-06-10T07:28:44;18.40;;;15.80;;
37199;SDS011;23096;50.892;16.746;2023-06-10T07:31:10;19.60;;;16.30;;
37199;SDS011;23096;50.892;16.746;2023-06-10T07:33:37;19.30;;;17.50;;
37199;SDS011;23096;50.892;16.746;2023-06-10T07:36:04;19.00;;;17.00;;
37199;SDS011;23096;50.892;16.746;2023-06-10T07:38:30;18.50;;;16.40;;
37199;SDS011;23096;50.892;16.746;2023-06-10T07:40:56;18.40;;;16.40;;
37199;SDS011;23096;50.892;16.746;2023-06-10T07:43:22;19.70;;;17.10;;
37199;SDS011;23096;50.892;16.746;2023-06-10T07:45:47;18.30;;;15.50;;
37199;SDS011;23096;50.892;16.746;2023-06-10T07:48:13;18.90;;;15.70;;
37199;SDS011;23096;50.892;16.746;2023-06-10T07:50:39;19.00;;;16.10;;
37199;SDS011;23096;50.892;16.746;2023-06-10T07:53:05;19.20;;;17.20;;
37199;SDS011;23096;50.892;16.746;2023-06-10T07:55:31;18.00;;;15.90;;
37199;SDS011;23096;50.892;16.746;2023-06-10T07:57:56;18.30;;;15.10;;
37199;SDS011;23096;50.892;16.746;2023-06-10T08:00:22;18.90;;;15.80;;
37199;SDS011;23096;50.892;16.746;2023-06-10T08:02:47;24.00;;;17.40;;
37199;SDS011;23096;50.892;16.746;2023-06-10T08:05:13;20.00;;;17.20;;
37199;SDS011;23096;50.892;16.746;2023-06-10T08:07:39;19.60;;;17.60;;
37199;SDS011;23096;50.892;16.746;2023-06-10T08:10:05;22.80;;;16.80;;
37199;SDS011;23096;50.892;16.746;2023-06-10T08:12:39;20.80;;;16.50;;
37199;SDS011;23096;50.892;16.746;2023-06-10T08:15:05;20.20;;;18.20;;
37199;SDS011;23096;50.892;16.746;2023-06-10T08:17:31;21.40;;;16.90;;
37199;SDS011;23096;50.892;16.746;2023-06-10T08:19:56;24.20;;;17.40;;
37199;SDS011;23096;50.892;16.746;2023-06-10T08:22:22;19.70;;;17.70;;
37199;SDS011;23096;50.892;16.746;2023-06-10T08:24:48;19.80;;;17.90;;
37199;SDS011;23096;50.892;16.746;2023-06-10T08:27:13;20.10;;;17.90;;
37199;SDS011;23096;50.892;16.746;2023-06-10T08:29:39;18.70;;;16.80;;
37199;SDS011;23096;50.892;16.746;2023-06-10T08:32:05;20.10;;;15.30;;
37199;SDS011;23096;50.892;16.746;2023-06-10T08:34:35;16.50;;;14.90;;
37199;SDS011;23096;50.892;16.746;2023-06-10T08:37:01;16.70;;;15.00;;
37199;SDS011;23096;50.892;16.746;2023-06-10T08:39:27;17.50;;;14.30;;
37199;SDS011;23096;50.892;16.746;2023-06-10T08:44:35;15.40;;;13.80;;
37199;SDS011;23096;50.892;16.746;2023-06-10T08:47:06;17.20;;;15.10;;
37199;SDS011;23096;50.892;16.746;2023-06-10T08:49:38;17.10;;;13.90;;
37199;SDS011;23096;50.892;16.746;2023-06-10T08:52:06;16.00;;;14.50;;
37199;SDS011;23096;50.892;16.746;2023-06-10T08:54:33;17.60;;;15.30;;
37199;SDS011;23096;50.892;16.746;2023-06-10T08:57:03;18.60;;;15.60;;
37199;SDS011;23096;50.892;16.746;2023-06-10T08:59:31;19.60;;;17.30;;
37199;SDS011;23096;50.892;16.746;2023-06-10T09:01:57;18.10;;;14.20;;
37199;SDS011;23096;50.892;16.746;2023-06-10T09:04:24;15.40;;;13.30;;
37199;SDS011;23096;50.892;16.746;2023-06-10T09:06:49;19.60;;;13.60;;
37199;SDS011;23096;50.892;16.746;2023-06-10T09:09:16;14.40;;;12.90;;
37199;SDS011;23096;50.892;16.746;2023-06-10T09:11:43;16.10;;;14.50;;
37199;SDS011;23096;50.892;16.746;2023-06-10T09:14:08;16.90;;;13.90;;
37199;SDS011;23096;50.892;16.746;2023-06-10T09:16:34;15.20;;;13.20;;
37199;SDS011;23096;50.892;16.746;2023-06-10T09:19:00;13.20;;;11.80;;
37199;SDS011;23096;50.892;16.746;2023-06-10T09:21:33;17.30;;;13.90;;
37199;SDS011;23096;50.892;16.746;2023-06-10T09:23:59;14.70;;;12.40;;
37199;SDS011;23096;50.892;16.746;2023-06-10T09:26:29;14.40;;;11.30;;
37199;SDS011;23096;50.892;16.746;2023-06-10T09:29:13;13.80;;;12.20;;
37199;SDS011;23096;50.892;16.746;2023-06-10T09:31:39;16.20;;;11.50;;
37199;SDS011;23096;50.892;16.746;2023-06-10T09:39:04;9.70;;;8.40;;
37199;SDS011;23096;50.892;16.746;2023-06-10T09:41:34;11.70;;;8.90;;
37199;SDS011;23096;50.892;16.746;2023-06-10T09:44:00;8.30;;;7.30;;
37199;SDS011;23096;50.892;16.746;2023-06-10T09:46:31;9.50;;;8.20;;
37199;SDS011;23096;50.892;16.746;2023-06-10T09:49:00;10.50;;;9.10;;
37199;SDS011;23096;50.892;16.746;2023-06-10T09:51:25;16.90;;;9.80;;
37199;SDS011;23096;50.892;16.746;2023-06-10T09:53:51;11.90;;;8.90;;
37199;SDS011;23096;50.892;16.746;2023-06-10T09:56:17;10.10;;;7.90;;
37199;SDS011;23096;50.892;16.746;2023-06-10T09:58:44;13.00;;;8.80;;
37199;SDS011;23096;50.892;16.746;2023-06-10T10:01:11;9.30;;;8.40;;
37199;SDS011;23096;50.892;16.746;2023-06-10T10:04:12;8.90;;;8.00;;
37199;SDS011;23096;50.892;16.746;2023-06-10T10:06:31;8.90;;;8.00;;
37199;SDS011;23096;50.892;16.746;2023-06-10T10:08:57;13.00;;;11.40;;
37199;SDS011;23096;50.892;16.746;2023-06-10T10:11:22;11.20;;;9.70;;
37199;SDS011;23096;50.892;16.746;2023-06-10T10:13:50;13.60;;;9.50;;
37199;SDS011;23096;50.892;16.746;2023-06-10T10:16:20;12.50;;;10.80;;
37199;SDS011;23096;50.892;16.746;2023-06-10T10:18:57;12.00;;;10.00;;
37199;SDS011;23096;50.892;16.746;2023-06-10T10:21:30;11.50;;;10.20;;
37199;SDS011;23096;50.892;16.746;2023-06-10T10:24:15;10.40;;;8.80;;
37199;SDS011;23096;50.892;16.746;2023-06-10T10:26:43;9.10;;;7.40;;
37199;SDS011;23096;50.892;16.746;2023-06-10T10:31:53;9.10;;;7.20;;
37199;SDS011;23096;50.892;16.746;2023-06-10T10:34:25;9.50;;;7.30;;
37199;SDS011;23096;50.892;16.746;2023-06-10T10:37:00;9.60;;;7.20;;
37199;SDS011;23096;50.892;16.746;2023-06-10T10:39:26;10.60;;;7.10;;
37199;SDS011;23096;50.892;16.746;2023-06-10T10:41:53;9.40;;;6.90;;
37199;SDS011;23096;50.892;16.746;2023-06-10T10:44:20;11.60;;;7.60;;
37199;SDS011;23096;50.892;16.746;2023-06-10T10:46:49;8.60;;;6.00;;
37199;SDS011;23096;50.892;16.746;2023-06-10T10:49:16;8.00;;;6.20;;
37199;SDS011;23096;50.892;16.746;2023-06-10T10:51:58;7.20;;;6.00;;
37199;SDS011;23096;50.892;16.746;2023-06-10T10:54:35;10.30;;;6.60;;
37199;SDS011;23096;50.892;16.746;2023-06-10T11:02:09;8.00;;;7.20;;
37199;SDS011;23096;50.892;16.746;2023-06-10T11:04:35;11.50;;;7.50;;
37199;SDS011;23096;50.892;16.746;2023-06-10T11:07:06;8.90;;;7.50;;
37199;SDS011;23096;50.892;16.746;2023-06-10T11:11:58;10.10;;;7.00;;
37199;SDS011;23096;50.892;16.746;2023-06-10T11:14:27;8.60;;;7.10;;
37199;SDS011;23096;50.892;16.746;2023-06-10T11:16:57;8.40;;;7.20;;
37199;SDS011;23096;50.892;16.746;2023-06-10T11:19:33;7.20;;;6.50;;
37199;SDS011;23096;50.892;16.746;2023-06-10T11:22:01;8.20;;;5.80;;
37199;SDS011;23096;50.892;16.746;2023-06-10T11:24:28;9.20;;;6.50;;
37199;SDS011;23096;50.892;16.746;2023-06-10T11:26:55;7.00;;;6.40;;
37199;SDS011;23096;50.892;16.746;2023-06-10T11:29:39;8.40;;;6.60;;
37199;SDS011;23096;50.892;16.746;2023-06-10T11:32:20;8.90;;;6.50;;
37199;SDS011;23096;50.892;16.746;2023-06-10T11:34:51;9.10;;;7.30;;
37199;SDS011;23096;50.892;16.746;2023-06-10T11:37:18;8.10;;;7.30;;
37199;SDS011;23096;50.892;16.746;2023-06-10T11:39:43;10.10;;;8.80;;
37199;SDS011;23096;50.892;16.746;2023-06-10T11:42:10;7.10;;;6.40;;
37199;SDS011;23096;50.892;16.746;2023-06-10T11:44:36;7.20;;;6.30;;
37199;SDS011;23096;50.892;16.746;2023-06-10T11:47:03;7.30;;;6.60;;
37199;SDS011;23096;50.892;16.746;2023-06-10T11:49:29;6.70;;;6.00;;
37199;SDS011;23096;50.892;16.746;2023-06-10T11:51:54;6.40;;;5.70;;
37199;SDS011;23096;50.892;16.746;2023-06-10T11:54:20;9.10;;;6.40;;
37199;SDS011;23096;50.892;16.746;2023-06-10T11:56:47;9.00;;;5.50;;
37199;SDS011;23096;50.892;16.746;2023-06-10T11:59:16;6.90;;;5.50;;
37199;SDS011;23096;50.892;16.746;2023-06-10T12:01:42;8.10;;;6.00;;
37199;SDS011;23096;50.892;16.746;2023-06-10T12:04:11;5.80;;;5.10;;
37199;SDS011;23096;50.892;16.746;2023-06-10T12:09:05;8.10;;;5.90;;
37199;SDS011;23096;50.892;16.746;2023-06-10T12:11:32;10.60;;;6.20;;
37199;SDS011;23096;50.892;16.746;2023-06-10T12:13:59;6.10;;;5.50;;
37199;SDS011;23096;50.892;16.746;2023-06-10T12:16:24;9.10;;;6.30;;
37199;SDS011;23096;50.892;16.746;2023-06-10T12:18:50;6.60;;;5.80;;
37199;SDS011;23096;50.892;16.746;2023-06-10T12:21:19;8.80;;;5.90;;
37199;SDS011;23096;50.892;16.746;2023-06-10T12:24:02;5.90;;;5.30;;
37199;SDS011;23096;50.892;16.746;2023-06-10T12:26:42;7.80;;;5.80;;
37199;SDS011;23096;50.892;16.746;2023-06-10T12:29:21;7.30;;;6.00;;
37199;SDS011;23096;50.892;16.746;2023-06-10T12:31:57;9.90;;;5.60;;
37199;SDS011;23096;50.892;16.746;2023-06-10T12:34:37;6.10;;;5.50;;
37199;SDS011;23096;50.892;16.746;2023-06-10T12:37:10;9.80;;;6.20;;
37199;SDS011;23096;50.892;16.746;2023-06-10T12:39:39;11.30;;;5.80;;
37199;SDS011;23096;50.892;16.746;2023-06-10T12:42:06;9.10;;;6.60;;
37199;SDS011;23096;50.892;16.746;2023-06-10T12:44:40;6.50;;;5.90;;
37199;SDS011;23096;50.892;16.746;2023-06-10T12:47:09;6.20;;;5.60;;
37199;SDS011;23096;50.892;16.746;2023-06-10T12:49:37;7.60;;;6.20;;
37199;SDS011;23096;50.892;16.746;2023-06-10T12:52:04;6.30;;;5.70;;
37199;SDS011;23096;50.892;16.746;2023-06-10T12:54:30;9.40;;;6.20;;
37199;SDS011;23096;50.892;16.746;2023-06-10T12:56:56;7.50;;;6.40;;
37199;SDS011;23096;50.892;16.746;2023-06-10T12:59:21;6.70;;;6.10;;
37199;SDS011;23096;50.892;16.746;2023-06-10T13:01:51;9.00;;;6.80;;
37199;SDS011;23096;50.892;16.746;2023-06-10T13:04:17;9.00;;;6.70;;
37199;SDS011;23096;50.892;16.746;2023-06-10T13:07:00;12.00;;;6.80;;
37199;SDS011;23096;50.892;16.746;2023-06-10T13:09:26;7.40;;;6.70;;
37199;SDS011;23096;50.892;16.746;2023-06-10T13:11:51;7.80;;;6.80;;
37199;SDS011;23096;50.892;16.746;2023-06-10T13:14:17;7.70;;;6.90;;
37199;SDS011;23096;50.892;16.746;2023-06-10T13:16:43;9.60;;;7.10;;
37199;SDS011;23096;50.892;16.746;2023-06-10T13:19:09;8.30;;;7.00;;
37199;SDS011;23096;50.892;16.746;2023-06-10T13:21:36;8.10;;;6.80;;
37199;SDS011;23096;50.892;16.746;2023-06-10T13:24:02;10.20;;;7.50;;
37199;SDS011;23096;50.892;16.746;2023-06-10T13:26:28;8.40;;;7.50;;
37199;SDS011;23096;50.892;16.746;2023-06-10T13:28:53;8.40;;;7.00;;
37199;SDS011;23096;50.892;16.746;2023-06-10T13:31:19;10.10;;;7.50;;
37199;SDS011;23096;50.892;16.746;2023-06-10T13:33:46;8.40;;;7.20;;
37199;SDS011;23096;50.892;16.746;2023-06-10T13:36:12;8.00;;;7.20;;
37199;SDS011;23096;50.892;16.746;2023-06-10T13:38:38;8.90;;;7.30;;
37199;SDS011;23096;50.892;16.746;2023-06-10T13:41:03;11.80;;;9.80;;
37199;SDS011;23096;50.892;16.746;2023-06-10T13:43:29;10.20;;;7.60;;
37199;SDS011;23096;50.892;16.746;2023-06-10T13:45:54;7.20;;;6.50;;
37199;SDS011;23096;50.892;16.746;2023-06-10T13:48:41;9.50;;;7.10;;
37199;SDS011;23096;50.892;16.746;2023-06-10T13:51:07;7.70;;;6.80;;
37199;SDS011;23096;50.892;16.746;2023-06-10T13:53:34;8.30;;;7.50;;
37199;SDS011;23096;50.892;16.746;2023-06-10T13:56:00;8.50;;;7.70;;
37199;SDS011;23096;50.892;16.746;2023-06-10T13:58:25;9.10;;;7.90;;
37199;SDS011;23096;50.892;16.746;2023-06-10T14:00:51;8.00;;;7.10;;
37199;SDS011;23096;50.892;16.746;2023-06-10T14:03:16;9.90;;;8.90;;
37199;SDS011;23096;50.892;16.746;2023-06-10T14:05:42;8.20;;;6.70;;
37199;SDS011;23096;50.892;16.746;2023-06-10T14:08:08;11.50;;;6.30;;
37199;SDS011;23096;50.892;16.746;2023-06-10T14:10:33;11.20;;;7.10;;
37199;SDS011;23096;50.892;16.746;2023-06-10T14:12:59;7.30;;;6.40;;
37199;SDS011;23096;50.892;16.746;2023-06-10T14:15:25;7.30;;;6.60;;
37199;SDS011;23096;50.892;16.746;2023-06-10T14:17:51;13.60;;;7.70;;
37199;SDS011;23096;50.892;16.746;2023-06-10T14:20:16;9.60;;;7.80;;
37199;SDS011;23096;50.892;16.746;2023-06-10T14:22:42;8.60;;;7.00;;
37199;SDS011;23096;50.892;16.746;2023-06-10T14:25:08;8.50;;;6.60;;
37199;SDS011;23096;50.892;16.746;2023-06-10T14:27:33;6.70;;;6.10;;
37199;SDS011;23096;50.892;16.746;2023-06-10T14:29:59;7.60;;;5.50;;
37199;SDS011;23096;50.892;16.746;2023-06-10T14:32:25;11.60;;;5.50;;
37199;SDS011;23096;50.892;16.746;2023-06-10T14:34:50;12.00;;;4.50;;
37199;SDS011;23096;50.892;16.746;2023-06-10T14:37:16;6.00;;;3.80;;
37199;SDS011;23096;50.892;16.746;2023-06-10T14:39:42;8.60;;;3.60;;
37199;SDS011;23096;50.892;16.746;2023-06-10T14:42:08;6.40;;;4.80;;
37199;SDS011;23096;50.892;16.746;2023-06-10T14:44:33;5.80;;;3.30;;
37199;SDS011;23096;50.892;16.746;2023-06-10T14:46:59;4.90;;;3.90;;